sensor_id;sensor_type;location;lat;lon;timestamp;pressure;altitude;pressure_sealevel;temperature;humidity
64336;BME280;50672;53.362;-6.240;2022-09-27T00:00:14;100828.06;;;11.08;70.86
64336;BME280;50672;53.362;-6.240;2022-09-27T00:03:41;100819.88;;;11.08;71.15
64336;BME280;50672;53.362;-6.240;2022-09-27T00:10:50;100835.72;;;11.04;71.45
64336;BME280;50672;53.362;-6.240;2022-09-27T00:14:15;100832.16;;;11.04;71.15
64336;BME280;50672;53.362;-6.240;2022-09-27T00:17:42;100839.66;;;11.02;71.31
64336;BME280;50672;53.362;-6.240;2022-09-27T00:20:31;100829.94;;;10.99;71.53
64336;BME280;50672;53.362;-6.240;2022-09-27T00:23:00;100823.66;;;10.99;71.91
64336;BME280;50672;53.362;-6.240;2022-09-27T00:25:26;100824.03;;;10.96;71.83
64336;BME280;50672;53.362;-6.240;2022-09-27T00:27:53;100833.22;;;10.94;71.86
64336;BME280;50672;53.362;-6.240;2022-09-27T00:30:20;100836.78;;;10.95;71.92
64336;BME280;50672;53.362;-6.240;2022-09-27T00:32:46;100825.03;;;10.94;71.94
64336;BME280;50672;53.362;-6.240;2022-09-27T00:35:13;100818.41;;;10.97;71.92
64336;BME280;50672;53.362;-6.240;2022-09-27T00:37:41;100822.81;;;10.98;72.01
64336;BME280;50672;53.362;-6.240;2022-09-27T00:40:08;100816.16;;;11.01;72.10
64336;BME280;50672;53.362;-6.240;2022-09-27T00:42:35;100806.97;;;11.02;72.11
64336;BME280;50672;53.362;-6.240;2022-09-27T00:45:06;100799.63;;;11.02;72.25
64336;BME280;50672;53.362;-6.240;2022-09-27T00:47:40;100798.44;;;11.05;72.34
64336;BME280;50672;53.362;-6.240;2022-09-27T00:50:22;100806.59;;;11.05;72.16
64336;BME280;50672;53.362;-6.240;2022-09-27T00:55:38;100796.75;;;11.04;72.43
64336;BME280;50672;53.362;-6.240;2022-09-27T00:58:06;100789.59;;;11.03;72.18
64336;BME280;50672;53.362;-6.240;2022-09-27T01:00:35;100799.47;;;11.04;72.60
64336;BME280;50672;53.362;-6.240;2022-09-27T01:03:06;100803.88;;;11.05;72.77
64336;BME280;50672;53.362;-6.240;2022-09-27T01:05:35;100798.25;;;11.06;72.64
64336;BME280;50672;53.362;-6.240;2022-09-27T01:08:01;100795.19;;;11.09;72.66
64336;BME280;50672;53.362;-6.240;2022-09-27T01:11:26;100799.78;;;11.09;72.80
64336;BME280;50672;53.362;-6.240;2022-09-27T01:14:26;100793.66;;;11.07;72.72
64336;BME280;50672;53.362;-6.240;2022-09-27T01:33:21;100779.53;;;11.03;74.03
64336;BME280;50672;53.362;-6.240;2022-09-27T01:44:27;100737.47;;;11.06;73.92
64336;BME280;50672;53.362;-6.240;2022-09-27T01:46:59;100733.06;;;11.05;74.33
64336;BME280;50672;53.362;-6.240;2022-09-27T01:50:37;100744.13;;;11.03;74.50
64336;BME280;50672;53.362;-6.240;2022-09-27T01:52:50;100738.31;;;11.06;74.14
64336;BME280;50672;53.362;-6.240;2022-09-27T01:55:21;100739.19;;;11.07;74.37
64336;BME280;50672;53.362;-6.240;2022-09-27T01:57:54;100739.19;;;11.07;74.33
64336;BME280;50672;53.362;-6.240;2022-09-27T02:00:23;100730.84;;;11.08;74.22
64336;BME280;50672;53.362;-6.240;2022-09-27T02:03:08;100721.63;;;11.09;74.08
64336;BME280;50672;53.362;-6.240;2022-09-27T02:05:51;100708.84;;;11.10;73.94
64336;BME280;50672;53.362;-6.240;2022-09-27T02:11:01;100719.38;;;11.13;74.11
64336;BME280;50672;53.362;-6.240;2022-09-27T02:16:28;100716.66;;;11.13;73.90
64336;BME280;50672;53.362;-6.240;2022-09-27T02:19:48;100719.19;;;11.15;73.66
64336;BME280;50672;53.362;-6.240;2022-09-27T02:22:50;100716.47;;;11.15;73.96
64336;BME280;50672;53.362;-6.240;2022-09-27T02:30:42;100706.44;;;11.15;73.69
64336;BME280;50672;53.362;-6.240;2022-09-27T02:33:09;100689.06;;;11.16;73.37
64336;BME280;50672;53.362;-6.240;2022-09-27T02:35:36;100689.06;;;11.16;73.40
64336;BME280;50672;53.362;-6.240;2022-09-27T02:38:08;100685.50;;;11.16;73.63
64336;BME280;50672;53.362;-6.240;2022-09-27T02:40:42;100694.88;;;11.13;73.54
64336;BME280;50672;53.362;-6.240;2022-09-27T02:43:10;100697.59;;;11.13;73.54
64336;BME280;50672;53.362;-6.240;2022-09-27T02:46:05;100707.16;;;11.09;73.57
64336;BME280;50672;53.362;-6.240;2022-09-27T02:52:07;100697.31;;;11.08;73.65
64336;BME280;50672;53.362;-6.240;2022-09-27T03:04:08;100676.81;;;11.12;73.71
64336;BME280;50672;53.362;-6.240;2022-09-27T03:06:38;100667.63;;;11.13;73.72
64336;BME280;50672;53.362;-6.240;2022-09-27T03:09:19;100671.03;;;11.15;73.65
64336;BME280;50672;53.362;-6.240;2022-09-27T03:11:47;100658.06;;;11.17;73.90
64336;BME280;50672;53.362;-6.240;2022-09-27T03:14:15;100654.31;;;11.18;73.73
64336;BME280;50672;53.362;-6.240;2022-09-27T03:16:42;100650.56;;;11.19;73.72
64336;BME280;50672;53.362;-6.240;2022-09-27T03:19:09;100653.94;;;11.21;73.80
64336;BME280;50672;53.362;-6.240;2022-09-27T03:21:36;100644.75;;;11.22;73.77
64336;BME280;50672;53.362;-6.240;2022-09-27T03:24:03;100629.91;;;11.25;73.85
64336;BME280;50672;53.362;-6.240;2022-09-27T03:26:29;100631.44;;;11.27;73.59
64336;BME280;50672;53.362;-6.240;2022-09-27T03:28:56;100623.91;;;11.29;73.80
64336;BME280;50672;53.362;-6.240;2022-09-27T03:31:23;100625.63;;;11.31;73.31
64336;BME280;50672;53.362;-6.240;2022-09-27T03:33:50;100617.25;;;11.32;73.58
64336;BME280;50672;53.362;-6.240;2022-09-27T03:36:16;100609.91;;;11.33;73.27
64336;BME280;50672;53.362;-6.240;2022-09-27T03:38:43;100623.53;;;11.33;73.61
64336;BME280;50672;53.362;-6.240;2022-09-27T03:41:10;100615.56;;;11.31;73.62
64336;BME280;50672;53.362;-6.240;2022-09-27T03:43:37;100617.25;;;11.32;73.35
64336;BME280;50672;53.362;-6.240;2022-09-27T03:46:04;100618.09;;;11.33;73.41
64336;BME280;50672;53.362;-6.240;2022-09-27T03:48:31;100618.09;;;11.33;73.01
64336;BME280;50672;53.362;-6.240;2022-09-27T03:50:57;100622.31;;;11.35;73.27
64336;BME280;50672;53.362;-6.240;2022-09-27T03:53:24;100614.84;;;11.37;73.09
64336;BME280;50672;53.362;-6.240;2022-09-27T03:55:51;100604.75;;;11.38;73.17
64336;BME280;50672;53.362;-6.240;2022-09-27T03:58:18;100602.69;;;11.40;72.87
64336;BME280;50672;53.362;-6.240;2022-09-27T04:00:45;100619.91;;;11.40;73.08
64336;BME280;50672;53.362;-6.240;2022-09-27T04:03:12;100607.13;;;11.41;72.78
64336;BME280;50672;53.362;-6.240;2022-09-27T04:05:59;100598.28;;;11.39;72.49
64336;BME280;50672;53.362;-6.240;2022-09-27T04:09:26;100595.56;;;11.39;72.74
64336;BME280;50672;53.362;-6.240;2022-09-27T04:12:33;100590.94;;;11.39;72.65
64336;BME280;50672;53.362;-6.240;2022-09-27T04:15:01;100590.13;;;11.39;72.83
64336;BME280;50672;53.362;-6.240;2022-09-27T04:17:33;100606.47;;;11.39;72.40
64336;BME280;50672;53.362;-6.240;2022-09-27T04:20:00;100604.75;;;11.38;72.59
64336;BME280;50672;53.362;-6.240;2022-09-27T04:22:29;100601.84;;;11.39;72.62
64336;BME280;50672;53.362;-6.240;2022-09-27T04:24:57;100594.88;;;11.37;72.34
64336;BME280;50672;53.362;-6.240;2022-09-27T04:27:25;100603.94;;;11.37;72.28
64336;BME280;50672;53.362;-6.240;2022-09-27T04:29:53;100598.63;;;11.36;72.50
64336;BME280;50672;53.362;-6.240;2022-09-27T04:32:25;100592.53;;;11.34;72.21
64336;BME280;50672;53.362;-6.240;2022-09-27T04:34:54;100594.63;;;11.32;72.43
64336;BME280;50672;53.362;-6.240;2022-09-27T04:37:43;100599.56;;;11.28;72.17
64336;BME280;50672;53.362;-6.240;2022-09-27T04:40:12;100589.06;;;11.25;72.44
64336;BME280;50672;53.362;-6.240;2022-09-27T04:42:42;100585.66;;;11.23;72.33
64336;BME280;50672;53.362;-6.240;2022-09-27T04:45:10;100581.41;;;11.20;72.37
64336;BME280;50672;53.362;-6.240;2022-09-27T04:47:46;100590.63;;;11.19;72.25
64336;BME280;50672;53.362;-6.240;2022-09-27T04:50:17;100590.63;;;11.19;72.24
64336;BME280;50672;53.362;-6.240;2022-09-27T04:52:52;100602.00;;;11.23;72.36
64336;BME280;50672;53.362;-6.240;2022-09-27T04:55:26;100601.81;;;11.24;72.45
64336;BME280;50672;53.362;-6.240;2022-09-27T04:57:59;100593.63;;;11.24;72.29
64336;BME280;50672;53.362;-6.240;2022-09-27T05:00:27;100588.19;;;11.24;72.32
64336;BME280;50672;53.362;-6.240;2022-09-27T05:02:54;100594.00;;;11.21;72.29
64336;BME280;50672;53.362;-6.240;2022-09-27T05:05:24;100602.75;;;11.17;72.20
64336;BME280;50672;53.362;-6.240;2022-09-27T05:07:52;100588.44;;;11.15;72.11
64336;BME280;50672;53.362;-6.240;2022-09-27T05:10:21;100595.09;;;11.12;72.18
64336;BME280;50672;53.362;-6.240;2022-09-27T05:12:52;100596.16;;;11.11;72.18
64336;BME280;50672;53.362;-6.240;2022-09-27T05:15:28;100598.00;;;11.10;72.23
64336;BME280;50672;53.362;-6.240;2022-09-27T05:17:56;100596.34;;;11.09;72.02
64336;BME280;50672;53.362;-6.240;2022-09-27T05:20:26;100599.72;;;11.11;72.10
64336;BME280;50672;53.362;-6.240;2022-09-27T05:22:56;100591.53;;;11.11;72.14
64336;BME280;50672;53.362;-6.240;2022-09-27T05:25:24;100591.72;;;11.10;72.29
64336;BME280;50672;53.362;-6.240;2022-09-27T05:27:54;100599.72;;;11.11;72.31
64336;BME280;50672;53.362;-6.240;2022-09-27T05:30:24;100597.81;;;11.12;72.06
64336;BME280;50672;53.362;-6.240;2022-09-27T05:32:52;100586.91;;;11.12;72.34
64336;BME280;50672;53.362;-6.240;2022-09-27T05:35:20;100588.81;;;11.11;72.39
64336;BME280;50672;53.362;-6.240;2022-09-27T05:37:56;100595.00;;;11.05;72.20
64336;BME280;50672;53.362;-6.240;2022-09-27T05:40:24;100595.19;;;11.04;72.15
64336;BME280;50672;53.362;-6.240;2022-09-27T05:43:07;100581.06;;;11.00;72.09
64336;BME280;50672;53.362;-6.240;2022-09-27T05:45:36;100589.25;;;11.00;72.22
64336;BME280;50672;53.362;-6.240;2022-09-27T05:48:06;100587.38;;;11.01;72.50
64336;BME280;50672;53.362;-6.240;2022-09-27T05:50:33;100591.59;;;11.03;72.55
64336;BME280;50672;53.362;-6.240;2022-09-27T05:53:01;100587.84;;;11.04;72.54
64336;BME280;50672;53.362;-6.240;2022-09-27T05:55:32;100577.78;;;11.05;72.65
64336;BME280;50672;53.362;-6.240;2022-09-27T05:58:03;100577.78;;;11.05;72.62
64336;BME280;50672;53.362;-6.240;2022-09-27T06:00:31;100570.69;;;11.04;72.65
64336;BME280;50672;53.362;-6.240;2022-09-27T06:03:03;100576.47;;;11.01;72.65
64336;BME280;50672;53.362;-6.240;2022-09-27T06:05:35;100573.47;;;10.96;72.71
64336;BME280;50672;53.362;-6.240;2022-09-27T06:08:07;100575.50;;;10.93;72.75
64336;BME280;50672;53.362;-6.240;2022-09-27T06:10:36;100567.72;;;10.90;72.66
64336;BME280;50672;53.362;-6.240;2022-09-27T06:13:11;100559.03;;;10.87;72.88
64336;BME280;50672;53.362;-6.240;2022-09-27T06:15:44;100557.72;;;10.83;72.77
64336;BME280;50672;53.362;-6.240;2022-09-27T06:18:14;100566.44;;;10.78;73.08
64336;BME280;50672;53.362;-6.240;2022-09-27T06:20:45;100571.75;;;10.71;73.05
64336;BME280;50672;53.362;-6.240;2022-09-27T06:23:16;100573.16;;;10.67;73.10
64336;BME280;50672;53.362;-6.240;2022-09-27T06:25:45;100577.94;;;10.65;73.36
64336;BME280;50672;53.362;-6.240;2022-09-27T06:28:15;100573.31;;;10.66;73.18
64336;BME280;50672;53.362;-6.240;2022-09-27T06:30:45;100573.31;;;10.66;73.33
64336;BME280;50672;53.362;-6.240;2022-09-27T06:33:16;100572.97;;;10.69;73.75
64336;BME280;50672;53.362;-6.240;2022-09-27T06:35:45;100568.56;;;10.68;73.63
64336;BME280;50672;53.362;-6.240;2022-09-27T06:38:17;100565.84;;;10.68;74.00
64336;BME280;50672;53.362;-6.240;2022-09-27T06:40:44;100566.50;;;10.70;74.19
64336;BME280;50672;53.362;-6.240;2022-09-27T06:43:18;100580.78;;;10.72;74.13
64336;BME280;50672;53.362;-6.240;2022-09-27T06:45:48;100577.00;;;10.73;74.12
64336;BME280;50672;53.362;-6.240;2022-09-27T06:48:16;100582.31;;;10.74;74.29
64336;BME280;50672;53.362;-6.240;2022-09-27T06:50:46;100570.38;;;10.75;74.25
64336;BME280;50672;53.362;-6.240;2022-09-27T06:53:15;100579.88;;;10.80;74.33
64336;BME280;50672;53.362;-6.240;2022-09-27T06:55:48;100570.31;;;10.84;74.37
64336;BME280;50672;53.362;-6.240;2022-09-27T06:58:20;100569.09;;;10.86;74.62
64336;BME280;50672;53.362;-6.240;2022-09-27T07:01:06;100571.44;;;10.89;74.44
64336;BME280;50672;53.362;-6.240;2022-09-27T07:03:36;100571.09;;;10.92;74.73
64336;BME280;50672;53.362;-6.240;2022-09-27T07:06:21;100571.75;;;10.94;74.53
64336;BME280;50672;53.362;-6.240;2022-09-27T07:08:52;100572.41;;;10.97;74.37
64336;BME280;50672;53.362;-6.240;2022-09-27T07:11:20;100554.22;;;10.97;74.47
64336;BME280;50672;53.362;-6.240;2022-09-27T07:13:49;100559.47;;;10.99;74.42
64336;BME280;50672;53.362;-6.240;2022-09-27T07:16:20;100558.47;;;11.00;74.50
64336;BME280;50672;53.362;-6.240;2022-09-27T07:18:49;100566.44;;;11.01;74.84
64336;BME280;50672;53.362;-6.240;2022-09-27T07:21:16;100561.81;;;11.02;74.59
64336;BME280;50672;53.362;-6.240;2022-09-27T07:23:51;100548.22;;;11.02;74.47
64336;BME280;50672;53.362;-6.240;2022-09-27T07:26:24;100553.28;;;11.05;74.95
64336;BME280;50672;53.362;-6.240;2022-09-27T07:28:55;100556.69;;;11.07;74.77
64336;BME280;50672;53.362;-6.240;2022-09-27T07:31:25;100561.25;;;11.06;74.63
64336;BME280;50672;53.362;-6.240;2022-09-27T07:33:58;100564.00;;;11.06;74.63
64336;BME280;50672;53.362;-6.240;2022-09-27T07:36:29;100564.84;;;11.07;74.76
64336;BME280;50672;53.362;-6.240;2022-09-27T07:39:00;100571.63;;;11.11;74.54
64336;BME280;50672;53.362;-6.240;2022-09-27T07:41:29;100559.69;;;11.12;74.93
64336;BME280;50672;53.362;-6.240;2022-09-27T07:43:59;100555.09;;;11.13;74.58
64336;BME280;50672;53.362;-6.240;2022-09-27T07:46:29;100553.22;;;11.13;74.54
64336;BME280;50672;53.362;-6.240;2022-09-27T07:48:58;100536.88;;;11.13;74.63
64336;BME280;50672;53.362;-6.240;2022-09-27T07:51:26;100551.16;;;11.15;74.67
64336;BME280;50672;53.362;-6.240;2022-09-27T07:53:55;100550.97;;;11.17;74.79
64336;BME280;50672;53.362;-6.240;2022-09-27T07:56:31;100541.59;;;11.19;74.71
64336;BME280;50672;53.362;-6.240;2022-09-27T07:59:00;100543.56;;;11.25;74.85
64336;BME280;50672;53.362;-6.240;2022-09-27T08:01:31;100540.13;;;11.32;74.85
64336;BME280;50672;53.362;-6.240;2022-09-27T08:04:00;100548.38;;;11.38;74.79
64336;BME280;50672;53.362;-6.240;2022-09-27T08:06:28;100545.75;;;11.45;74.67
64336;BME280;50672;53.362;-6.240;2022-09-27T08:08:59;100552.16;;;11.52;74.40
64336;BME280;50672;53.362;-6.240;2022-09-27T08:11:27;100547.00;;;11.57;74.57
64336;BME280;50672;53.362;-6.240;2022-09-27T08:13:55;100543.50;;;11.63;74.60
64336;BME280;50672;53.362;-6.240;2022-09-27T08:16:26;100546.53;;;11.69;74.36
64336;BME280;50672;53.362;-6.240;2022-09-27T08:18:54;100541.56;;;11.72;74.39
64336;BME280;50672;53.362;-6.240;2022-09-27T08:21:23;100543.91;;;11.75;74.14
64336;BME280;50672;53.362;-6.240;2022-09-27T08:23:52;100548.56;;;11.82;74.49
64336;BME280;50672;53.362;-6.240;2022-09-27T08:26:22;100547.56;;;11.83;74.00
64336;BME280;50672;53.362;-6.240;2022-09-27T08:28:51;100543.22;;;11.88;74.30
64336;BME280;50672;53.362;-6.240;2022-09-27T08:31:20;100539.09;;;11.92;74.06
64336;BME280;50672;53.362;-6.240;2022-09-27T08:33:49;100547.38;;;11.99;73.85
64336;BME280;50672;53.362;-6.240;2022-09-27T08:36:18;100532.13;;;12.05;73.58
64336;BME280;50672;53.362;-6.240;2022-09-27T08:38:48;100539.34;;;12.12;73.68
64336;BME280;50672;53.362;-6.240;2022-09-27T08:46:42;100523.50;;;12.38;73.31
64336;BME280;50672;53.362;-6.240;2022-09-27T08:49:22;100525.53;;;12.51;72.84
64336;BME280;50672;53.362;-6.240;2022-09-27T08:51:52;100528.13;;;12.59;72.64
64336;BME280;50672;53.362;-6.240;2022-09-27T08:54:25;100521.06;;;12.64;72.44
64336;BME280;50672;53.362;-6.240;2022-09-27T08:57:19;100526.72;;;12.63;72.62
64336;BME280;50672;53.362;-6.240;2022-09-27T09:02:26;100530.59;;;12.54;72.12
64336;BME280;50672;53.362;-6.240;2022-09-27T09:04:59;100532.50;;;12.53;71.75
64336;BME280;50672;53.362;-6.240;2022-09-27T09:18:59;100526.91;;;12.61;71.01
64336;BME280;50672;53.362;-6.240;2022-09-27T09:21:52;100537.44;;;12.64;71.04
64336;BME280;50672;53.362;-6.240;2022-09-27T09:27:46;100528.84;;;12.68;71.03
64336;BME280;50672;53.362;-6.240;2022-09-27T09:30:28;100523.25;;;12.76;70.95
64336;BME280;50672;53.362;-6.240;2022-09-27T09:33:25;100517.66;;;12.84;70.55
64336;BME280;50672;53.362;-6.240;2022-09-27T09:36:03;100521.94;;;12.93;70.78
64336;BME280;50672;53.362;-6.240;2022-09-27T09:44:20;100523.94;;;13.06;70.54
64336;BME280;50672;53.362;-6.240;2022-09-27T09:46:54;100525.81;;;13.06;70.06
64336;BME280;50672;53.362;-6.240;2022-09-27T09:49:42;100515.75;;;13.06;70.30
64336;BME280;50672;53.362;-6.240;2022-09-27T09:52:17;100516.19;;;13.10;69.96
64336;BME280;50672;53.362;-6.240;2022-09-27T09:54:56;100509.28;;;13.14;70.17
64336;BME280;50672;53.362;-6.240;2022-09-27T10:00:27;100495.47;;;13.22;69.66
64336;BME280;50672;53.362;-6.240;2022-09-27T10:02:58;100499.75;;;13.31;69.60
64336;BME280;50672;53.362;-6.240;2022-09-27T10:05:29;100503.81;;;13.36;69.51
64336;BME280;50672;53.362;-6.240;2022-09-27T10:08:03;100500.00;;;13.37;69.16
64336;BME280;50672;53.362;-6.240;2022-09-27T10:10:36;100489.44;;;13.33;69.40
64336;BME280;50672;53.362;-6.240;2022-09-27T10:13:04;100483.56;;;13.30;69.26
64336;BME280;50672;53.362;-6.240;2022-09-27T10:15:33;100490.66;;;13.24;68.87
64336;BME280;50672;53.362;-6.240;2022-09-27T10:18:03;100492.78;;;13.29;68.71
64336;BME280;50672;53.362;-6.240;2022-09-27T10:20:50;100491.09;;;13.28;68.60
64336;BME280;50672;53.362;-6.240;2022-09-27T10:23:21;100486.50;;;13.28;68.61
64336;BME280;50672;53.362;-6.240;2022-09-27T10:28:38;100491.97;;;13.28;68.75
64336;BME280;50672;53.362;-6.240;2022-09-27T10:31:17;100486.09;;;13.31;68.24
64336;BME280;50672;53.362;-6.240;2022-09-27T10:33:58;100472.81;;;13.28;68.62
64336;BME280;50672;53.362;-6.240;2022-09-27T10:36:33;100471.69;;;13.23;68.10
64336;BME280;50672;53.362;-6.240;2022-09-27T10:39:20;100467.88;;;13.17;68.41
64336;BME280;50672;53.362;-6.240;2022-09-27T10:41:53;100450.66;;;13.16;68.44
64336;BME280;50672;53.362;-6.240;2022-09-27T10:44:27;100459.25;;;13.13;68.54
64336;BME280;50672;53.362;-6.240;2022-09-27T10:47:05;100465.97;;;13.11;68.69
64336;BME280;50672;53.362;-6.240;2022-09-27T10:49:36;100465.97;;;13.11;68.62
64336;BME280;50672;53.362;-6.240;2022-09-27T10:52:15;100452.28;;;13.11;68.71
64336;BME280;50672;53.362;-6.240;2022-09-27T10:54:57;100455.63;;;13.06;68.58
64336;BME280;50672;53.362;-6.240;2022-09-27T10:57:28;100460.25;;;13.06;68.70
64336;BME280;50672;53.362;-6.240;2022-09-27T11:00:01;100450.19;;;13.06;68.69
64336;BME280;50672;53.362;-6.240;2022-09-27T11:02:33;100444.34;;;13.16;68.91
64336;BME280;50672;53.362;-6.240;2022-09-27T11:05:28;100450.94;;;13.28;68.78
64336;BME280;50672;53.362;-6.240;2022-09-27T11:08:21;100449.31;;;13.34;68.69
64336;BME280;50672;53.362;-6.240;2022-09-27T11:13:37;100440.84;;;13.29;68.66
64336;BME280;50672;53.362;-6.240;2022-09-27T11:19:10;100432.75;;;13.14;68.97
64336;BME280;50672;53.362;-6.240;2022-09-27T11:30:13;100411.94;;;13.13;68.61
64336;BME280;50672;53.362;-6.240;2022-09-27T11:38:25;100420.00;;;12.93;68.69
64336;BME280;50672;53.362;-6.240;2022-09-27T11:46:33;100410.13;;;12.92;68.70
64336;BME280;50672;53.362;-6.240;2022-09-27T11:52:07;100425.13;;;13.03;68.41
64336;BME280;50672;53.362;-6.240;2022-09-27T11:54:48;100424.50;;;13.07;68.20
64336;BME280;50672;53.362;-6.240;2022-09-27T11:57:29;100420.75;;;13.08;68.22
64336;BME280;50672;53.362;-6.240;2022-09-27T12:05:54;100407.97;;;13.44;67.58
64336;BME280;50672;53.362;-6.240;2022-09-27T12:13:56;100407.03;;;13.72;67.48
64336;BME280;50672;53.362;-6.240;2022-09-27T12:16:26;100407.03;;;13.72;67.38
64336;BME280;50672;53.362;-6.240;2022-09-27T12:18:57;100405.13;;;13.72;66.86
64336;BME280;50672;53.362;-6.240;2022-09-27T12:21:30;100414.41;;;13.78;66.66
64336;BME280;50672;53.362;-6.240;2022-09-27T12:24:00;100409.97;;;13.77;66.64
64336;BME280;50672;53.362;-6.240;2022-09-27T12:26:36;100410.56;;;13.65;66.38
64336;BME280;50672;53.362;-6.240;2022-09-27T12:29:25;100414.13;;;13.59;66.56
64336;BME280;50672;53.362;-6.240;2022-09-27T12:32:03;100407.59;;;13.54;66.35
64336;BME280;50672;53.362;-6.240;2022-09-27T12:34:46;100410.50;;;13.52;65.99
64336;BME280;50672;53.362;-6.240;2022-09-27T12:37:26;100411.72;;;13.43;66.04
64336;BME280;50672;53.362;-6.240;2022-09-27T12:40:12;100408.53;;;13.39;65.87
64336;BME280;50672;53.362;-6.240;2022-09-27T12:42:51;100399.44;;;13.32;65.82
64336;BME280;50672;53.362;-6.240;2022-09-27T12:48:46;100399.84;;;13.29;66.08
64336;BME280;50672;53.362;-6.240;2022-09-27T12:51:21;100385.19;;;13.37;66.09
64336;BME280;50672;53.362;-6.240;2022-09-27T12:54:13;100395.78;;;13.53;66.29
64336;BME280;50672;53.362;-6.240;2022-09-27T13:12:11;100367.31;;;14.02;65.12
64336;BME280;50672;53.362;-6.240;2022-09-27T13:14:56;100383.94;;;13.94;65.29
64336;BME280;50672;53.362;-6.240;2022-09-27T13:22:50;100374.41;;;13.77;65.14
64336;BME280;50672;53.362;-6.240;2022-09-27T13:31:09;100363.88;;;13.74;65.26
64336;BME280;50672;53.362;-6.240;2022-09-27T13:33:46;100365.78;;;13.73;64.99
64336;BME280;50672;53.362;-6.240;2022-09-27T13:47:04;100360.09;;;13.68;65.17
64336;BME280;50672;53.362;-6.240;2022-09-27T13:49:46;100369.78;;;13.71;65.34
64336;BME280;50672;53.362;-6.240;2022-09-27T13:54:51;100365.09;;;13.64;65.61
64336;BME280;50672;53.362;-6.240;2022-09-27T14:00:04;100350.34;;;13.52;65.29
64336;BME280;50672;53.362;-6.240;2022-09-27T14:05:19;100356.63;;;13.46;65.46
64336;BME280;50672;53.362;-6.240;2022-09-27T14:07:50;100352.22;;;13.45;65.49
64336;BME280;50672;53.362;-6.240;2022-09-27T14:10:20;100349.09;;;13.48;65.79
64336;BME280;50672;53.362;-6.240;2022-09-27T14:12:51;100353.28;;;13.50;65.32
64336;BME280;50672;53.362;-6.240;2022-09-27T14:15:26;100356.88;;;13.51;65.48
64336;BME280;50672;53.362;-6.240;2022-09-27T14:17:58;100351.81;;;13.55;65.35
64336;BME280;50672;53.362;-6.240;2022-09-27T14:20:45;100352.03;;;13.53;65.70
64336;BME280;50672;53.362;-6.240;2022-09-27T14:23:20;100351.00;;;13.54;65.32
64336;BME280;50672;53.362;-6.240;2022-09-27T14:25:50;100347.59;;;13.52;65.33
64336;BME280;50672;53.362;-6.240;2022-09-27T14:28:29;100348.25;;;13.54;65.53
64336;BME280;50672;53.362;-6.240;2022-09-27T14:31:23;100352.03;;;13.53;65.49
64336;BME280;50672;53.362;-6.240;2022-09-27T14:34:05;100344.91;;;13.59;65.39
64336;BME280;50672;53.362;-6.240;2022-09-27T14:36:35;100339.22;;;13.60;65.17
64336;BME280;50672;53.362;-6.240;2022-09-27T14:39:30;100337.56;;;13.66;65.42
64336;BME280;50672;53.362;-6.240;2022-09-27T14:41:59;100334.44;;;13.69;65.58
64336;BME280;50672;53.362;-6.240;2022-09-27T14:44:28;100334.84;;;13.73;65.44
64336;BME280;50672;53.362;-6.240;2022-09-27T14:47:08;100323.06;;;13.85;65.16
64336;BME280;50672;53.362;-6.240;2022-09-27T14:49:47;100321.41;;;13.98;64.89
64336;BME280;50672;53.362;-6.240;2022-09-27T14:52:22;100325.63;;;14.00;64.80
64336;BME280;50672;53.362;-6.240;2022-09-27T14:55:05;100326.06;;;14.11;65.04
64336;BME280;50672;53.362;-6.240;2022-09-27T14:57:35;100324.81;;;14.33;64.54
64336;BME280;50672;53.362;-6.240;2022-09-27T15:00:27;100317.44;;;14.34;64.70
64336;BME280;50672;53.362;-6.240;2022-09-27T15:03:05;100331.75;;;14.23;64.49
64336;BME280;50672;53.362;-6.240;2022-09-27T15:05:40;100327.09;;;14.03;64.50
64336;BME280;50672;53.362;-6.240;2022-09-27T15:08:11;100323.09;;;13.92;64.03
64336;BME280;50672;53.362;-6.240;2022-09-27T15:10:42;100327.94;;;13.90;64.21
64336;BME280;50672;53.362;-6.240;2022-09-27T15:13:14;100323.94;;;13.86;64.07
64336;BME280;50672;53.362;-6.240;2022-09-27T15:15:44;100329.59;;;13.78;64.46
64336;BME280;50672;53.362;-6.240;2022-09-27T15:20:56;100336.94;;;13.71;64.41
64336;BME280;50672;53.362;-6.240;2022-09-27T15:23:29;100334.00;;;13.72;64.39
64336;BME280;50672;53.362;-6.240;2022-09-27T15:26:21;100337.81;;;13.78;64.32
64336;BME280;50672;53.362;-6.240;2022-09-27T15:28:54;100333.38;;;13.77;64.27
64336;BME280;50672;53.362;-6.240;2022-09-27T15:31:33;100323.28;;;13.71;64.17
64336;BME280;50672;53.362;-6.240;2022-09-27T15:34:02;100318.66;;;13.78;64.47
64336;BME280;50672;53.362;-6.240;2022-09-27T15:39:40;100334.84;;;13.73;64.40
64336;BME280;50672;53.362;-6.240;2022-09-27T15:42:12;100325.78;;;13.65;64.27
64336;BME280;50672;53.362;-6.240;2022-09-27T15:44:51;100332.72;;;13.61;64.57
64336;BME280;50672;53.362;-6.240;2022-09-27T15:52:48;100328.06;;;13.55;64.67
64336;BME280;50672;53.362;-6.240;2022-09-27T15:55:23;100328.47;;;13.45;64.85
64336;BME280;50672;53.362;-6.240;2022-09-27T15:57:54;100333.25;;;13.37;64.73
64336;BME280;50672;53.362;-6.240;2022-09-27T16:00:26;100335.09;;;13.29;64.34
64336;BME280;50672;53.362;-6.240;2022-09-27T16:02:54;100326.44;;;13.19;64.82
64336;BME280;50672;53.362;-6.240;2022-09-27T16:05:23;100337.13;;;13.14;64.49
64336;BME280;50672;53.362;-6.240;2022-09-27T16:07:51;100330.78;;;13.07;64.65
64336;BME280;50672;53.362;-6.240;2022-09-27T16:10:35;100326.75;;;13.03;64.69
64336;BME280;50672;53.362;-6.240;2022-09-27T16:13:04;100331.19;;;13.04;64.80
64336;BME280;50672;53.362;-6.240;2022-09-27T16:15:35;100325.28;;;13.00;64.77
64336;BME280;50672;53.362;-6.240;2022-09-27T16:18:02;100319.38;;;12.96;64.97
64336;BME280;50672;53.362;-6.240;2022-09-27T16:20:31;100324.81;;;12.90;65.16
64336;BME280;50672;53.362;-6.240;2022-09-27T16:23:00;100322.69;;;12.85;65.51
64336;BME280;50672;53.362;-6.240;2022-09-27T16:25:28;100327.66;;;12.75;65.29